Maryville, Iowa
Current Conditions -  °F | °C
As of 10:15 PM on Friday 24 Oct 2014 (Local Time) from KOLZ Reporting Station
Haze Haze  
Wind Chill: 59°   Ceiling: 200
Heat Index: 59°   Visibility: 0.75mi
Dew Point: 59°   Wind: 6mph
Humidity: 100%   Direction: 210°SSW
Pressure: 29.95"   Gusts: NA
Location:  42.7309°N, 91.6667°W
Report Text: KOLZ 250315Z AUTO 21005KT 3/4SM BR OVC002 15/15 A2995 RMK AO2
Loading
Personal Weather Stations






























Interactive Weather Map
Tropical Storm Tracking
New forecast layout! Learn more

10-Day Weather Forecast

Advertisements
Track Severe Weather on mobile